Time;durP1;ratioP1;P1;durP2;ratioP2;P2;SDS_P1;SDS_P2;PMS_P1;PMS_P2;Temp;Humidity;BMP_temperature;BMP_pressure;BME280_temperature;BME280_humidity;BME280_pressure;Samples;Min_cycle;Max_cycle;Signal;HPM_P1;HPM_P2
2023/07/23 00:01:49;;;;;;;;;;;26.00;53.80;;;;;;5095714;28;19967;-55
2023/07/23 00:04:16;;;;;;;;;;;26.00;53.80;;;;;;5095570;28;19924;-54
2023/07/23 00:06:43;;;;;;;;;;;26.00;53.90;;;;;;5094736;28;20440;-53
2023/07/23 00:09:10;;;;;;;;;;;26.00;53.90;;;;;;5095529;28;20038;-55
2023/07/23 00:11:37;;;;;;;;;;;26.00;53.90;;;;;;5095563;28;19925;-53
2023/07/23 00:14:04;;;;;;;;;;;26.00;54.50;;;;;;5095251;28;19971;-54
2023/07/23 00:16:31;;;;;;;;;;;26.00;54.00;;;;;;5094927;28;19924;-55
2023/07/23 00:18:58;;;;;;;;;;;26.00;54.00;;;;;;5095810;28;19924;-55
2023/07/23 00:21:25;;;;;;;;;;;26.00;54.00;;;;;;5095662;28;19924;-55
2023/07/23 00:23:52;;;;;;;;;;;26.00;54.00;;;;;;5095083;28;19928;-55
2023/07/23 00:26:19;;;;;;;;;;;26.00;54.00;;;;;;5095208;28;20391;-55
2023/07/23 00:28:46;;;;;;;;;;;26.00;54.00;;;;;;5095508;28;20325;-55
2023/07/23 00:31:13;;;;;;;;;;;26.00;54.10;;;;;;5095038;28;19964;-55
2023/07/23 00:33:40;;;;;;;;;;;26.00;54.10;;;;;;5095100;28;20382;-53
2023/07/23 00:36:07;;;;;;;;;;;26.00;54.10;;;;;;5095403;28;19977;-55
2023/07/23 00:38:34;;;;;;;;;;;26.00;54.20;;;;;;5094949;28;20434;-55
2023/07/23 00:41:01;;;;;;;;;;;26.00;54.20;;;;;;5095419;28;20073;-53
2023/07/23 00:43:28;;;;;;;;;;;26.00;54.20;;;;;;5094915;28;19976;-55
2023/07/23 00:45:57;;;;;;;;;;;26.00;54.20;;;;;;5095045;28;19959;-53
2023/07/23 00:48:24;;;;;;;;;;;26.00;54.20;;;;;;5094808;28;19963;-55
2023/07/23 00:50:51;;;;;;;;;;;26.00;54.20;;;;;;5094490;28;20455;-54
2023/07/23 00:53:18;;;;;;;;;;;26.00;54.30;;;;;;5094520;28;20372;-55
2023/07/23 00:55:45;;;;;;;;;;;26.00;54.30;;;;;;5093438;28;19966;-54
2023/07/23 00:58:12;;;;;;;;;;;26.00;54.30;;;;;;5094344;28;20047;-54
2023/07/23 01:00:39;;;;;;;;;;;26.00;54.30;;;;;;5095040;28;20349;-53
2023/07/23 01:03:06;;;;;;;;;;;26.00;54.30;;;;;;5094612;28;19931;-54
2023/07/23 01:05:33;;;;;;;;;;;26.00;54.30;;;;;;5094502;28;20015;-54
2023/07/23 01:08:00;;;;;;;;;;;26.00;54.30;;;;;;5094704;28;19928;-55
2023/07/23 01:10:27;;;;;;;;;;;26.00;54.30;;;;;;5093013;28;19924;-54
2023/07/23 01:12:55;;;;;;;;;;;26.00;54.30;;;;;;5094331;28;19924;-55
2023/07/23 01:15:22;;;;;;;;;;;26.00;54.30;;;;;;5094647;28;20323;-55
2023/07/23 01:17:50;;;;;;;;;;;26.00;54.30;;;;;;5094021;28;20334;-52
2023/07/23 01:20:17;;;;;;;;;;;26.00;54.30;;;;;;5094283;28;19924;-56
2023/07/23 01:22:44;;;;;;;;;;;26.00;54.30;;;;;;5094173;28;19924;-54
2023/07/23 01:25:11;;;;;;;;;;;26.00;54.30;;;;;;5094455;28;19966;-56
2023/07/23 01:27:38;;;;;;;;;;;26.00;54.30;;;;;;5093642;28;19974;-56
2023/07/23 01:30:08;;;;;;;;;;;25.90;54.20;;;;;;5093799;28;19977;-55
2023/07/23 01:32:35;;;;;;;;;;;25.90;54.20;;;;;;5094139;28;19989;-53
2023/07/23 01:35:11;;;;;;;;;;;25.90;54.20;;;;;;5093984;28;19928;-55
2023/07/23 01:37:38;;;;;;;;;;;25.90;54.30;;;;;;5093680;28;19978;-55
2023/07/23 01:40:05;;;;;;;;;;;25.90;54.30;;;;;;5094262;28;19963;-56
2023/07/23 01:42:32;;;;;;;;;;;25.90;54.30;;;;;;5093829;28;19932;-55
2023/07/23 01:45:05;;;;;;;;;;;25.90;54.30;;;;;;5093869;28;20019;-56
2023/07/23 01:47:32;;;;;;;;;;;25.90;54.30;;;;;;5094039;28;19973;-54
2023/07/23 01:49:59;;;;;;;;;;;25.90;54.40;;;;;;5093798;28;20300;-54
2023/07/23 01:52:26;;;;;;;;;;;25.90;54.40;;;;;;5093980;28;19978;-55
2023/07/23 01:54:53;;;;;;;;;;;25.90;54.50;;;;;;5093600;28;20319;-55
2023/07/23 01:57:20;;;;;;;;;;;25.90;54.40;;;;;;5094000;28;20031;-55
2023/07/23 01:59:47;;;;;;;;;;;25.90;54.50;;;;;;5093677;28;19924;-55
2023/07/23 02:02:14;;;;;;;;;;;25.90;54.50;;;;;;5093667;28;19931;-53
2023/07/23 02:04:41;;;;;;;;;;;25.80;54.50;;;;;;5093909;28;19931;-56
2023/07/23 02:07:08;;;;;;;;;;;25.90;54.50;;;;;;5092838;28;20350;-52
2023/07/23 02:09:35;;;;;;;;;;;25.80;54.40;;;;;;5093265;28;19931;-55
2023/07/23 02:12:02;;;;;;;;;;;25.90;54.60;;;;;;5093321;28;19971;-54
2023/07/23 02:14:29;;;;;;;;;;;25.80;54.50;;;;;;5092467;28;19931;-55
2023/07/23 02:16:56;;;;;;;;;;;25.80;54.50;;;;;;5093718;28;19970;-54
2023/07/23 02:19:23;;;;;;;;;;;25.80;54.50;;;;;;5093829;28;19928;-53
2023/07/23 02:21:50;;;;;;;;;;;25.80;54.60;;;;;;5093717;28;20328;-53
2023/07/23 02:24:17;;;;;;;;;;;25.80;54.60;;;;;;5093518;28;20414;-54
2023/07/23 02:26:44;;;;;;;;;;;25.80;54.60;;;;;;5093478;28;19927;-55
2023/07/23 02:29:11;;;;;;;;;;;25.80;54.60;;;;;;5093432;28;20112;-55
2023/07/23 02:31:38;;;;;;;;;;;25.80;54.60;;;;;;5093019;28;19932;-54
2023/07/23 02:34:05;;;;;;;;;;;25.80;54.60;;;;;;5093294;28;19924;-55
2023/07/23 02:36:33;;;;;;;;;;;25.80;54.60;;;;;;5093218;28;19934;-55
2023/07/23 02:39:00;;;;;;;;;;;25.70;54.60;;;;;;5097091;28;20125;-54
2023/07/23 02:41:27;;;;;;;;;;;25.70;54.60;;;;;;5097049;28;20069;-54
2023/07/23 02:43:54;;;;;;;;;;;25.80;54.70;;;;;;5097523;28;20018;-52
2023/07/23 02:46:21;;;;;;;;;;;25.70;54.70;;;;;;5097094;28;20023;-55
2023/07/23 02:48:48;;;;;;;;;;;25.70;54.70;;;;;;5097226;28;20569;-55
2023/07/23 02:51:15;;;;;;;;;;;25.70;54.70;;;;;;5096897;28;20338;-55
2023/07/23 02:53:42;;;;;;;;;;;25.80;54.80;;;;;;5097489;28;19924;-52
2023/07/23 02:56:09;;;;;;;;;;;25.70;54.70;;;;;;5097470;28;19970;-53
2023/07/23 02:58:36;;;;;;;;;;;25.80;54.80;;;;;;5097183;28;19924;-54
2023/07/23 03:01:03;;;;;;;;;;;25.80;54.80;;;;;;5096915;28;19954;-53
2023/07/23 03:03:30;;;;;;;;;;;25.70;55.30;;;;;;5097254;28;19974;-53
2023/07/23 03:05:57;;;;;;;;;;;25.80;54.90;;;;;;5096947;28;19924;-54
2023/07/23 03:08:24;;;;;;;;;;;25.80;54.90;;;;;;5096703;28;20387;-55
2023/07/23 03:10:51;;;;;;;;;;;25.70;54.80;;;;;;5096366;28;19924;-55
2023/07/23 03:13:18;;;;;;;;;;;25.70;54.80;;;;;;5097049;28;19990;-54
2023/07/23 03:15:45;;;;;;;;;;;25.80;54.90;;;;;;5096743;28;19928;-54
2023/07/23 03:18:14;;;;;;;;;;;25.80;54.90;;;;;;5095786;28;20226;-55
2023/07/23 03:20:41;;;;;;;;;;;25.70;54.80;;;;;;5096550;28;19991;-55
2023/07/23 03:23:08;;;;;;;;;;;25.80;54.90;;;;;;5096612;28;20384;-55
2023/07/23 03:25:35;;;;;;;;;;;25.80;54.90;;;;;;5096513;28;20411;-55
2023/07/23 03:28:02;;;;;;;;;;;25.80;54.90;;;;;;5096654;28;19968;-54
2023/07/23 03:30:29;;;;;;;;;;;25.80;54.90;;;;;;5096187;28;20361;-54
2023/07/23 03:32:56;;;;;;;;;;;25.80;54.90;;;;;;5096531;28;19931;-55
2023/07/23 03:35:23;;;;;;;;;;;25.80;54.90;;;;;;5096609;28;19934;-54
2023/07/23 03:37:50;;;;;;;;;;;25.80;54.80;;;;;;5096636;28;19954;-55
2023/07/23 03:40:17;;;;;;;;;;;25.80;54.80;;;;;;5096337;28;19971;-55
2023/07/23 03:42:44;;;;;;;;;;;25.80;54.70;;;;;;5096197;28;19975;-54
2023/07/23 03:45:11;;;;;;;;;;;25.80;54.70;;;;;;5096299;28;20324;-55
2023/07/23 03:47:38;;;;;;;;;;;25.80;54.60;;;;;;5096188;28;20434;-53
2023/07/23 03:50:05;;;;;;;;;;;25.80;54.60;;;;;;5095358;28;19931;-55
2023/07/23 03:52:32;;;;;;;;;;;25.80;54.60;;;;;;5095933;28;19931;-55
2023/07/23 03:54:59;;;;;;;;;;;25.90;54.60;;;;;;5095817;28;20386;-55
2023/07/23 03:57:26;;;;;;;;;;;25.90;54.60;;;;;;5096173;28;19946;-54
2023/07/23 03:59:53;;;;;;;;;;;25.90;54.50;;;;;;5095984;28;19931;-54
2023/07/23 04:02:20;;;;;;;;;;;25.90;54.50;;;;;;5095595;28;19928;-53
2023/07/23 04:04:47;;;;;;;;;;;25.90;54.50;;;;;;5096261;28;19977;-55
2023/07/23 04:07:14;;;;;;;;;;;25.90;54.40;;;;;;5095555;28;19993;-54
2023/07/23 04:09:41;;;;;;;;;;;25.90;54.40;;;;;;5095509;28;20030;-55
2023/07/23 04:12:10;;;;;;;;;;;25.90;54.30;;;;;;5094147;28;20048;-53
2023/07/23 04:14:42;;;;;;;;;;;26.00;54.40;;;;;;5095791;28;19928;-54
2023/07/23 04:17:10;;;;;;;;;;;26.00;54.40;;;;;;5095823;28;19985;-55
2023/07/23 04:19:37;;;;;;;;;;;26.00;54.40;;;;;;5095529;28;20438;-55
2023/07/23 04:22:04;;;;;;;;;;;26.00;54.30;;;;;;5095530;28;19947;-52
2023/07/23 04:24:31;;;;;;;;;;;26.00;54.40;;;;;;5095827;28;19924;-55
2023/07/23 04:26:58;;;;;;;;;;;26.00;54.30;;;;;;5095180;28;19949;-55
2023/07/23 04:29:25;;;;;;;;;;;26.10;54.30;;;;;;5095180;28;19924;-54
2023/07/23 04:31:52;;;;;;;;;;;26.10;54.30;;;;;;5094898;28;19924;-55
2023/07/23 04:34:19;;;;;;;;;;;26.10;54.20;;;;;;5095532;28;19949;-56
2023/07/23 04:36:46;;;;;;;;;;;26.10;54.10;;;;;;5094884;28;20368;-52
2023/07/23 04:39:13;;;;;;;;;;;26.10;54.00;;;;;;5095050;28;19971;-54
2023/07/23 04:41:40;;;;;;;;;;;26.10;54.00;;;;;;5095147;28;19928;-54
2023/07/23 04:44:07;;;;;;;;;;;26.20;54.00;;;;;;5095046;28;20407;-54
2023/07/23 04:46:34;;;;;;;;;;;26.20;53.90;;;;;;5094836;28;19928;-55
2023/07/23 04:49:01;;;;;;;;;;;26.20;53.80;;;;;;5095022;28;20433;-55
2023/07/23 04:51:28;;;;;;;;;;;26.20;53.80;;;;;;5094543;28;19924;-55
2023/07/23 04:53:55;;;;;;;;;;;26.20;53.80;;;;;;5094687;28;19978;-56
2023/07/23 04:56:22;;;;;;;;;;;26.20;53.70;;;;;;5094494;28;19978;-56
2023/07/23 04:58:49;;;;;;;;;;;26.20;53.70;;;;;;5094744;28;20376;-55
2023/07/23 05:01:16;;;;;;;;;;;26.20;53.70;;;;;;5093818;28;19930;-55
2023/07/23 05:03:43;;;;;;;;;;;26.30;53.60;;;;;;5095075;28;19928;-52
2023/07/23 05:06:10;;;;;;;;;;;26.30;53.60;;;;;;5094259;28;20458;-55
2023/07/23 05:08:37;;;;;;;;;;;26.30;53.40;;;;;;5094857;28;20494;-52
2023/07/23 05:11:05;;;;;;;;;;;26.30;53.20;;;;;;5094610;28;19931;-56
2023/07/23 05:13:32;;;;;;;;;;;26.30;53.10;;;;;;5094475;28;19985;-53
2023/07/23 05:16:00;;;;;;;;;;;26.30;52.70;;;;;;5094080;28;19924;-55
2023/07/23 05:18:27;;;;;;;;;;;26.30;52.50;;;;;;5094674;28;19924;-55
2023/07/23 05:20:54;;;;;;;;;;;26.40;52.30;;;;;;5094726;28;19934;-54
2023/07/23 05:23:22;;;;;;;;;;;26.40;52.00;;;;;;5094251;28;20296;-52
2023/07/23 05:25:49;;;;;;;;;;;26.40;51.80;;;;;;5094102;28;19932;-56
2023/07/23 05:28:16;;;;;;;;;;;26.40;51.60;;;;;;5094149;28;20015;-54
2023/07/23 05:30:43;;;;;;;;;;;26.40;51.40;;;;;;5093894;28;19924;-55
2023/07/23 05:33:10;;;;;;;;;;;26.40;50.90;;;;;;5093939;28;20308;-53
2023/07/23 05:35:38;;;;;;;;;;;26.50;50.90;;;;;;5094256;28;19924;-55
2023/07/23 05:38:05;;;;;;;;;;;26.50;50.70;;;;;;5094294;28;19934;-59
2023/07/23 05:40:35;;;;;;;;;;;26.50;50.70;;;;;;5093925;28;19964;-54
2023/07/23 05:43:08;;;;;;;;;;;26.50;50.30;;;;;;5093908;28;20447;-53
2023/07/23 05:45:36;;;;;;;;;;;26.50;50.10;;;;;;5093539;28;19924;-51
2023/07/23 05:48:03;;;;;;;;;;;26.50;50.00;;;;;;5093763;28;19924;-54
2023/07/23 05:50:30;;;;;;;;;;;26.50;49.90;;;;;;5093252;28;19963;-54
2023/07/23 05:52:57;;;;;;;;;;;26.50;49.80;;;;;;5093630;28;20372;-52
2023/07/23 05:55:24;;;;;;;;;;;26.50;49.80;;;;;;5085394;28;19978;-53
2023/07/23 05:57:51;;;;;;;;;;;26.60;49.70;;;;;;5071692;28;19925;-53
2023/07/23 06:00:18;;;;;;;;;;;26.60;49.70;;;;;;5072940;28;20023;-54
2023/07/23 06:02:45;;;;;;;;;;;26.60;49.60;;;;;;5073371;28;19967;-54
2023/07/23 06:05:12;;;;;;;;;;;26.60;49.50;;;;;;5093636;28;20447;-55
2023/07/23 06:07:39;;;;;;;;;;;26.60;49.50;;;;;;5090940;28;19924;-55
2023/07/23 06:10:06;;;;;;;;;;;26.60;49.40;;;;;;5079530;28;19970;-52
2023/07/23 06:12:33;;;;;;;;;;;26.60;49.30;;;;;;5072411;28;19925;-56
2023/07/23 06:15:00;;;;;;;;;;;26.60;49.40;;;;;;5073459;28;19925;-55
2023/07/23 06:17:27;;;;;;;;;;;26.60;49.50;;;;;;5077002;28;20019;-53
2023/07/23 06:19:54;;;;;;;;;;;26.60;49.60;;;;;;5093505;28;19931;-54
2023/07/23 06:22:21;;;;;;;;;;;26.70;49.60;;;;;;5086889;28;20388;-54
2023/07/23 06:24:48;;;;;;;;;;;26.60;49.60;;;;;;5073583;28;19925;-51
2023/07/23 06:27:15;;;;;;;;;;;26.60;49.60;;;;;;5073365;28;19936;-56
2023/07/23 06:29:42;;;;;;;;;;;26.70;50.20;;;;;;5073137;28;20011;-55
2023/07/23 06:32:10;;;;;;;;;;;26.70;49.60;;;;;;5073011;28;20011;-55
2023/07/23 06:34:37;;;;;;;;;;;26.70;49.60;;;;;;5073198;28;19931;-56
2023/07/23 06:37:04;;;;;;;;;;;26.60;49.50;;;;;;5073462;28;20011;-56
2023/07/23 06:39:31;;;;;;;;;;;26.70;49.50;;;;;;5073038;28;19925;-55
2023/07/23 06:41:58;;;;;;;;;;;26.70;49.50;;;;;;5073268;28;19924;-55
2023/07/23 06:44:24;;;;;;;;;;;26.70;49.50;;;;;;5080396;28;19928;-54
2023/07/23 06:46:51;;;;;;;;;;;26.70;49.50;;;;;;5093387;28;19924;-55
2023/07/23 06:49:18;;;;;;;;;;;26.70;49.50;;;;;;5093558;28;19925;-57
2023/07/23 06:51:45;;;;;;;;;;;26.70;49.40;;;;;;5093008;28;20296;-55
2023/07/23 06:54:12;;;;;;;;;;;26.70;49.40;;;;;;5093122;28;20019;-56
2023/07/23 06:56:39;;;;;;;;;;;26.70;49.40;;;;;;5093466;28;19970;-55
2023/07/23 06:59:06;;;;;;;;;;;26.70;49.30;;;;;;5093432;28;20015;-55
2023/07/23 07:01:33;;;;;;;;;;;26.70;49.30;;;;;;5093000;28;20007;-55
2023/07/23 07:04:00;;;;;;;;;;;26.70;49.40;;;;;;5093542;28;19924;-55
2023/07/23 07:06:27;;;;;;;;;;;26.70;49.40;;;;;;5092613;28;20343;-54
2023/07/23 07:08:54;;;;;;;;;;;26.80;49.40;;;;;;5092945;28;19931;-55
2023/07/23 07:11:20;;;;;;;;;;;26.80;49.30;;;;;;5091492;28;19931;-55
2023/07/23 07:13:47;;;;;;;;;;;26.80;49.40;;;;;;5092660;28;19967;-55
2023/07/23 07:16:16;;;;;;;;;;;26.80;49.40;;;;;;5092344;28;20146;-55
2023/07/23 07:18:43;;;;;;;;;;;26.80;49.40;;;;;;5092882;28;19932;-55
2023/07/23 07:21:10;;;;;;;;;;;26.80;49.30;;;;;;5092826;28;19924;-56
2023/07/23 07:23:37;;;;;;;;;;;26.80;49.30;;;;;;5093189;28;19924;-55
2023/07/23 07:26:04;;;;;;;;;;;26.80;49.30;;;;;;5096198;28;19924;-56
2023/07/23 07:28:32;;;;;;;;;;;26.80;49.20;;;;;;5096500;28;19924;-56
2023/07/23 07:31:00;;;;;;;;;;;26.80;49.20;;;;;;5096288;28;20269;-56
2023/07/23 07:33:28;;;;;;;;;;;26.80;49.20;;;;;;5096177;28;19931;-57
2023/07/23 07:35:55;;;;;;;;;;;26.80;49.20;;;;;;5096764;28;19924;-55
2023/07/23 07:38:23;;;;;;;;;;;26.80;49.20;;;;;;5096323;28;19924;-56
2023/07/23 07:40:50;;;;;;;;;;;26.80;49.20;;;;;;5087214;28;19933;-55
2023/07/23 07:43:17;;;;;;;;;;;26.80;49.20;;;;;;5078192;28;19928;-56
2023/07/23 07:45:48;;;;;;;;;;;26.90;49.20;;;;;;5077971;28;19936;-54
2023/07/23 07:48:20;;;;;;;;;;;26.90;49.30;;;;;;5080675;28;19985;-55
2023/07/23 07:50:56;;;;;;;;;;;26.90;49.30;;;;;;5078482;28;20027;-55
2023/07/23 07:53:23;;;;;;;;;;;26.90;49.10;;;;;;5075717;28;20015;-54
2023/07/23 07:55:50;;;;;;;;;;;26.90;49.10;;;;;;5075902;28;19959;-55
2023/07/23 07:58:17;;;;;;;;;;;26.90;49.10;;;;;;5075862;28;19925;-57
2023/07/23 08:00:44;;;;;;;;;;;26.90;49.10;;;;;;5075867;28;19966;-53
2023/07/23 08:03:11;;;;;;;;;;;26.90;49.10;;;;;;5075455;28;20007;-57
2023/07/23 08:05:39;;;;;;;;;;;26.90;49.10;;;;;;5075803;28;19928;-57
2023/07/23 08:08:07;;;;;;;;;;;26.90;49.10;;;;;;5075395;28;20377;-54
2023/07/23 08:10:34;;;;;;;;;;;27.00;49.10;;;;;;5075459;28;19924;-55
2023/07/23 08:13:02;;;;;;;;;;;27.00;49.10;;;;;;5075052;28;20464;-53
2023/07/23 08:15:30;;;;;;;;;;;27.00;49.10;;;;;;5075311;28;19929;-54
2023/07/23 08:17:57;;;;;;;;;;;27.00;49.10;;;;;;5074828;28;20026;-56
2023/07/23 08:20:27;;;;;;;;;;;27.00;49.10;;;;;;5075226;28;19924;-56
2023/07/23 08:22:55;;;;;;;;;;;27.00;49.00;;;;;;5073847;28;20288;-56
2023/07/23 08:25:22;;;;;;;;;;;27.00;49.00;;;;;;5075156;28;19924;-56
2023/07/23 08:27:50;;;;;;;;;;;27.00;49.00;;;;;;5074476;28;19925;-56
2023/07/23 08:30:19;;;;;;;;;;;27.00;49.00;;;;;;5075018;28;20438;-54
2023/07/23 08:32:48;;;;;;;;;;;27.00;49.00;;;;;;5074706;28;20397;-57
2023/07/23 08:35:15;;;;;;;;;;;27.00;49.00;;;;;;5074940;28;19924;-56
2023/07/23 08:37:42;;;;;;;;;;;27.00;49.00;;;;;;5075201;28;19978;-56
2023/07/23 08:40:09;;;;;;;;;;;27.00;49.00;;;;;;5074348;28;20407;-57
2023/07/23 08:42:56;;;;;;;;;;;27.00;49.00;;;;;;5074894;28;19985;-58
2023/07/23 08:45:43;;;;;;;;;;;27.10;49.20;;;;;;5074466;28;19931;-56
2023/07/23 08:48:15;;;;;;;;;;;27.10;49.10;;;;;;5074428;28;19978;-55
2023/07/23 08:50:43;;;;;;;;;;;27.10;49.10;;;;;;5074895;28;19924;-56
2023/07/23 08:53:11;;;;;;;;;;;27.10;49.10;;;;;;5074264;28;19924;-56
2023/07/23 08:55:40;;;;;;;;;;;27.10;49.10;;;;;;5074810;28;20296;-59
2023/07/23 08:58:07;;;;;;;;;;;27.10;49.10;;;;;;5073936;28;19936;-57
2023/07/23 09:00:35;;;;;;;;;;;27.10;49.10;;;;;;5090573;28;19924;-57
2023/07/23 09:03:04;;;;;;;;;;;27.00;49.00;;;;;;5092471;28;19970;-54
2023/07/23 09:05:31;;;;;;;;;;;27.10;49.10;;;;;;5094368;28;20035;-56
2023/07/23 09:07:59;;;;;;;;;;;27.10;49.10;;;;;;5082898;28;19960;-56
2023/07/23 09:10:26;;;;;;;;;;;27.10;49.10;;;;;;5088395;28;19928;-57
2023/07/23 09:12:53;;;;;;;;;;;27.10;49.10;;;;;;5085330;28;19924;-56
2023/07/23 09:15:19;;;;;;;;;;;27.10;49.10;;;;;;5074086;28;20266;-54
2023/07/23 09:17:50;;;;;;;;;;;27.10;49.10;;;;;;5085182;28;20316;-55
2023/07/23 09:20:18;;;;;;;;;;;27.10;49.00;;;;;;5083803;28;19924;-56
2023/07/23 09:22:46;;;;;;;;;;;27.20;49.10;;;;;;5088157;28;19977;-54
2023/07/23 09:25:13;;;;;;;;;;;27.20;49.10;;;;;;5074175;28;19971;-56
2023/07/23 09:27:41;;;;;;;;;;;27.20;49.00;;;;;;5083648;28;19924;-56
2023/07/23 09:30:21;;;;;;;;;;;27.10;49.00;;;;;;5082449;28;19931;-51
2023/07/23 09:32:58;;;;;;;;;;;27.10;48.90;;;;;;5087742;28;19938;-52
2023/07/23 09:35:28;;;;;;;;;;;27.20;48.90;;;;;;5073952;28;20288;-56
2023/07/23 09:37:57;;;;;;;;;;;27.20;48.90;;;;;;5074071;28;19924;-57
2023/07/23 09:40:35;;;;;;;;;;;27.20;48.90;;;;;;5073782;28;19925;-57
2023/07/23 09:43:02;;;;;;;;;;;27.20;48.90;;;;;;5082430;28;19970;-55
2023/07/23 09:45:30;;;;;;;;;;;27.20;48.90;;;;;;5085470;28;19924;-55
2023/07/23 09:47:58;;;;;;;;;;;27.20;48.80;;;;;;5089159;28;20330;-55
2023/07/23 09:50:42;;;;;;;;;;;27.20;48.80;;;;;;5086944;28;19931;-55
2023/07/23 09:53:09;;;;;;;;;;;27.20;48.80;;;;;;5091791;28;19966;-56
2023/07/23 09:55:37;;;;;;;;;;;27.20;48.80;;;;;;5094026;28;20347;-55
2023/07/23 09:58:05;;;;;;;;;;;27.20;48.80;;;;;;5093576;28;19931;-57
2023/07/23 10:00:36;;;;;;;;;;;27.20;48.70;;;;;;5093803;28;19977;-57
2023/07/23 10:03:03;;;;;;;;;;;27.20;48.70;;;;;;5093415;28;19930;-57
2023/07/23 10:05:35;;;;;;;;;;;27.30;48.80;;;;;;5093462;28;20480;-56
2023/07/23 10:08:03;;;;;;;;;;;27.30;48.70;;;;;;5093259;28;19998;-56
2023/07/23 10:10:30;;;;;;;;;;;27.30;48.60;;;;;;5093942;28;19931;-54
2023/07/23 10:12:57;;;;;;;;;;;27.30;48.50;;;;;;5093350;28;20261;-56
2023/07/23 10:15:24;;;;;;;;;;;27.30;48.50;;;;;;5093398;28;20388;-54
2023/07/23 10:17:54;;;;;;;;;;;27.30;48.40;;;;;;5092939;28;20437;-56
2023/07/23 10:20:22;;;;;;;;;;;27.30;48.40;;;;;;5093236;28;19924;-56
2023/07/23 10:22:49;;;;;;;;;;;27.40;48.40;;;;;;5093157;28;20380;-56
2023/07/23 10:25:25;;;;;;;;;;;27.40;48.40;;;;;;5093457;28;19928;-55
2023/07/23 10:27:59;;;;;;;;;;;27.40;48.30;;;;;;5092933;28;19924;-56
2023/07/23 10:30:27;;;;;;;;;;;27.40;48.20;;;;;;5093550;28;19927;-55
2023/07/23 10:33:14;;;;;;;;;;;27.40;48.20;;;;;;5091996;28;19928;-59
2023/07/23 10:36:07;;;;;;;;;;;27.40;48.10;;;;;;5092376;28;19931;-56
2023/07/23 10:38:34;;;;;;;;;;;27.40;48.00;;;;;;5093561;28;19961;-57
2023/07/23 10:41:02;;;;;;;;;;;27.40;48.00;;;;;;5092028;28;19931;-56
2023/07/23 10:43:43;;;;;;;;;;;27.40;48.00;;;;;;5093564;28;19924;-56
2023/07/23 10:46:11;;;;;;;;;;;27.50;48.10;;;;;;5093756;28;20022;-58
2023/07/23 10:48:43;;;;;;;;;;;27.50;48.00;;;;;;5093614;28;19925;-57
2023/07/23 10:51:12;;;;;;;;;;;27.50;48.00;;;;;;5093154;28;20438;-56
2023/07/23 10:53:55;;;;;;;;;;;27.50;48.00;;;;;;5093328;28;19974;-53
2023/07/23 10:56:23;;;;;;;;;;;27.50;48.00;;;;;;5093102;28;20380;-58
2023/07/23 10:58:53;;;;;;;;;;;27.40;47.80;;;;;;5094049;28;19982;-57
2023/07/23 11:01:24;;;;;;;;;;;27.50;47.90;;;;;;5097288;28;19928;-56
2023/07/23 11:03:53;;;;;;;;;;;27.50;47.80;;;;;;5097529;28;20280;-57
2023/07/23 11:06:27;;;;;;;;;;;27.50;47.70;;;;;;5097127;28;20265;-57
2023/07/23 11:08:55;;;;;;;;;;;27.50;47.70;;;;;;5097024;28;19967;-57
2023/07/23 11:11:33;;;;;;;;;;;27.50;47.70;;;;;;5095666;28;19924;-57
2023/07/23 11:14:01;;;;;;;;;;;27.50;47.60;;;;;;5096754;28;19970;-58
2023/07/23 11:16:29;;;;;;;;;;;27.50;47.60;;;;;;5096585;28;19930;-57
2023/07/23 11:18:56;;;;;;;;;;;27.50;47.60;;;;;;5084201;28;20373;-56
2023/07/23 11:21:27;;;;;;;;;;;27.50;47.50;;;;;;5094246;28;19968;-57
2023/07/23 11:23:55;;;;;;;;;;;27.50;47.50;;;;;;5100143;28;20342;-54
2023/07/23 11:26:22;;;;;;;;;;;27.50;47.40;;;;;;5098081;28;19924;-57
2023/07/23 11:28:49;;;;;;;;;;;27.50;47.40;;;;;;5094604;28;19931;-57
2023/07/23 11:31:16;;;;;;;;;;;27.50;47.40;;;;;;5082073;28;19928;-56
2023/07/23 11:33:43;;;;;;;;;;;27.50;47.30;;;;;;5095846;28;19928;-57
2023/07/23 11:36:10;;;;;;;;;;;27.50;47.30;;;;;;5079535;28;19929;-54
2023/07/23 11:38:37;;;;;;;;;;;27.50;47.20;;;;;;5081840;28;19983;-56
2023/07/23 11:41:04;;;;;;;;;;;27.60;47.30;;;;;;5076352;28;20003;-57
2023/07/23 11:43:32;;;;;;;;;;;27.60;47.30;;;;;;5075918;28;19925;-57
2023/07/23 11:45:59;;;;;;;;;;;27.60;47.20;;;;;;5076450;28;19928;-57
2023/07/23 11:48:26;;;;;;;;;;;27.60;47.20;;;;;;5092453;28;20304;-57
2023/07/23 11:50:54;;;;;;;;;;;27.60;47.10;;;;;;5096058;28;19924;-56
2023/07/23 11:53:31;;;;;;;;;;;27.60;47.10;;;;;;5095776;28;19930;-56
2023/07/23 11:56:03;;;;;;;;;;;27.60;47.10;;;;;;5096073;28;19971;-56
2023/07/23 11:58:31;;;;;;;;;;;27.60;47.10;;;;;;5079686;28;20047;-56
2023/07/23 12:00:58;;;;;;;;;;;27.60;47.10;;;;;;5079243;28;20338;-56
2023/07/23 12:03:25;;;;;;;;;;;27.60;47.10;;;;;;5095841;28;19928;-55
2023/07/23 12:05:53;;;;;;;;;;;27.60;47.20;;;;;;5095822;28;20364;-55
2023/07/23 12:08:20;;;;;;;;;;;27.60;47.80;;;;;;5094841;28;19955;-56
2023/07/23 12:10:47;;;;;;;;;;;27.60;47.10;;;;;;5095466;28;20360;-54
2023/07/23 12:13:14;;;;;;;;;;;27.60;47.00;;;;;;5094624;28;20392;-56
2023/07/23 12:15:47;;;;;;;;;;;27.60;47.00;;;;;;5095057;28;20022;-55
2023/07/23 12:18:14;;;;;;;;;;;27.70;47.00;;;;;;5095268;28;19931;-56
2023/07/23 12:20:41;;;;;;;;;;;27.70;47.00;;;;;;5095743;28;19928;-54
2023/07/23 12:23:07;;;;;;;;;;;27.70;47.00;;;;;;5091679;28;19931;-54
2023/07/23 12:25:34;;;;;;;;;;;27.60;46.90;;;;;;5075041;28;19924;-53
2023/07/23 12:28:01;;;;;;;;;;;27.60;46.90;;;;;;5075483;28;20019;-56
2023/07/23 12:30:28;;;;;;;;;;;27.70;46.90;;;;;;5075316;28;19928;-56
2023/07/23 12:32:55;;;;;;;;;;;27.60;47.10;;;;;;5075837;28;19971;-56
2023/07/23 12:35:22;;;;;;;;;;;27.70;46.90;;;;;;5095160;28;19964;-56
2023/07/23 12:37:49;;;;;;;;;;;27.70;46.90;;;;;;5094315;28;20463;-57
2023/07/23 12:40:18;;;;;;;;;;;27.70;46.90;;;;;;5095629;28;19970;-56
2023/07/23 12:42:45;;;;;;;;;;;27.70;46.90;;;;;;5095299;28;19967;-57
2023/07/23 12:45:12;;;;;;;;;;;27.70;46.90;;;;;;5074636;28;19970;-56
2023/07/23 12:47:39;;;;;;;;;;;27.70;46.90;;;;;;5074785;28;20015;-54
2023/07/23 12:50:06;;;;;;;;;;;27.70;46.90;;;;;;5074799;28;19932;-57
2023/07/23 12:52:33;;;;;;;;;;;27.70;46.90;;;;;;5074481;28;19925;-56
2023/07/23 12:55:00;;;;;;;;;;;27.70;46.90;;;;;;5074331;28;19928;-55
2023/07/23 12:57:27;;;;;;;;;;;27.70;46.90;;;;;;5073510;28;19946;-55
2023/07/23 12:59:54;;;;;;;;;;;27.70;46.90;;;;;;5071613;28;19924;-57
2023/07/23 13:02:21;;;;;;;;;;;27.80;47.00;;;;;;5078076;28;19928;-57
2023/07/23 13:04:48;;;;;;;;;;;27.80;46.90;;;;;;5089541;28;19925;-57
2023/07/23 13:07:14;;;;;;;;;;;27.80;46.90;;;;;;5093992;28;19967;-56
2023/07/23 13:09:41;;;;;;;;;;;27.80;46.90;;;;;;5080350;28;19924;-57
2023/07/23 13:12:08;;;;;;;;;;;27.80;46.90;;;;;;5086428;28;19924;-57
2023/07/23 13:14:35;;;;;;;;;;;27.80;47.00;;;;;;5076223;28;20023;-57
2023/07/23 13:17:02;;;;;;;;;;;27.80;47.00;;;;;;5087808;28;20019;-57
2023/07/23 13:19:29;;;;;;;;;;;27.80;47.00;;;;;;5088108;28;20030;-57
2023/07/23 13:21:56;;;;;;;;;;;27.80;47.00;;;;;;5088633;28;19924;-55
2023/07/23 13:24:23;;;;;;;;;;;27.80;47.00;;;;;;5083691;28;19986;-53
2023/07/23 13:26:50;;;;;;;;;;;27.80;47.00;;;;;;5085081;28;19932;-55
2023/07/23 13:29:17;;;;;;;;;;;27.80;47.00;;;;;;5093384;28;20380;-54
2023/07/23 13:31:44;;;;;;;;;;;27.80;47.00;;;;;;5093874;28;20011;-54
2023/07/23 13:34:11;;;;;;;;;;;27.80;47.00;;;;;;5093651;28;20446;-55
2023/07/23 13:36:38;;;;;;;;;;;27.80;47.00;;;;;;5087312;28;19924;-53
2023/07/23 13:39:05;;;;;;;;;;;27.80;47.00;;;;;;5086332;28;19977;-55
2023/07/23 13:41:31;;;;;;;;;;;27.80;47.00;;;;;;5094254;28;19967;-56
2023/07/23 13:43:58;;;;;;;;;;;27.80;47.10;;;;;;5094092;28;19971;-56
2023/07/23 13:46:28;;;;;;;;;;;27.80;47.00;;;;;;5093609;28;20044;-55
2023/07/23 13:48:55;;;;;;;;;;;27.80;47.10;;;;;;5094098;28;20031;-56
2023/07/23 13:51:22;;;;;;;;;;;27.80;47.10;;;;;;5093745;28;20357;-57
2023/07/23 13:53:49;;;;;;;;;;;27.80;47.10;;;;;;5093788;28;19957;-55
2023/07/23 13:56:16;;;;;;;;;;;27.80;47.10;;;;;;5093587;28;20373;-54
2023/07/23 13:58:43;;;;;;;;;;;27.80;47.10;;;;;;5092972;28;19924;-55
2023/07/23 14:01:10;;;;;;;;;;;27.80;47.20;;;;;;5093820;28;20372;-53
2023/07/23 14:03:38;;;;;;;;;;;27.80;47.10;;;;;;5093551;28;19931;-55
2023/07/23 14:06:05;;;;;;;;;;;27.80;47.10;;;;;;5093803;28;19977;-54
2023/07/23 14:08:33;;;;;;;;;;;27.80;47.10;;;;;;5093728;28;19926;-53
2023/07/23 14:11:00;;;;;;;;;;;27.80;47.40;;;;;;5093539;28;20371;-57
2023/07/23 14:13:27;;;;;;;;;;;27.80;48.00;;;;;;5093611;28;19924;-57
2023/07/23 14:15:54;;;;;;;;;;;27.80;48.50;;;;;;5093094;28;19924;-57
2023/07/23 14:18:21;;;;;;;;;;;27.80;48.90;;;;;;5092930;28;19924;-57
2023/07/23 14:20:48;;;;;;;;;;;27.80;49.20;;;;;;5094077;28;20030;-57